Time;durP1;ratioP1;P1;durP2;ratioP2;P2;SDS_P1;SDS_P2;PMS_P1;PMS_P2;Temp;Humidity;BMP_temperature;BMP_pressure;BME280_temperature;BME280_humidity;BME280_pressure;Samples;Min_cycle;Max_cycle;Signal;HPM_P1;HPM_P2
2023/09/28 00:00:36;;;;;;;23.70;15.00;;;;;;;14.70;77.88;100719.41;130202;1256;114710;-70
2023/09/28 00:03:56;;;;;;;19.40;14.20;;;;;;;14.61;78.53;100717.58;130007;1262;128024;-71
2023/09/28 00:06:58;;;;;;;21.20;15.50;;;;;;;14.53;78.75;100719.14;130237;1257;114821;-71
2023/09/28 00:10:01;;;;;;;20.70;15.10;;;;;;;14.45;78.97;100715.45;130340;1276;114792;-70
2023/09/28 00:13:03;;;;;;;24.00;16.50;;;;;;;14.38;78.97;100718.23;130193;1259;114790;-70
2023/09/28 00:16:05;;;;;;;25.10;15.40;;;;;;;14.30;79.11;100718.14;130235;1275;114724;-71
2023/09/28 00:19:08;;;;;;;27.30;15.80;;;;;;;14.23;79.27;100717.31;130365;1254;115103;-70
2023/09/28 00:22:11;;;;;;;19.40;14.40;;;;;;;14.17;79.59;100720.34;130273;1253;114870;-70
2023/09/28 00:25:16;;;;;;;23.60;16.90;;;;;;;14.09;79.39;100717.91;130140;1253;114881;-71
2023/09/28 00:28:17;;;;;;;;;;;;;;;14.05;80.11;100715.48;130061;1276;114712;-70
2023/09/28 00:31:20;;;;;;;22.60;16.00;;;;;;;14.01;80.39;100715.69;130236;1257;115420;-71
2023/09/28 00:34:22;;;;;;;25.00;17.20;;;;;;;13.96;80.61;100714.70;130254;1257;115102;-71
2023/09/28 00:37:24;;;;;;;27.10;17.10;;;;;;;13.93;80.85;100719.34;130252;1254;114773;-71
2023/09/28 00:40:31;;;;;;;27.20;18.10;;;;;;;13.90;81.24;100713.79;130225;1257;114734;-70
2023/09/28 00:43:34;;;;;;;30.00;18.60;;;;;;;13.87;81.32;100712.52;130315;1256;129093;-70
2023/09/28 00:46:37;;;;;;;19.60;15.90;;;;;;;13.83;81.47;100712.36;130258;1256;114763;-70
2023/09/28 00:49:39;;;;;;;22.50;16.30;;;;;;;13.79;81.44;100710.80;130459;1253;114823;-69
2023/09/28 00:52:49;;;;;;;22.70;17.30;;;;;;;13.74;81.58;100714.34;130391;1256;114751;-70
2023/09/28 00:55:53;;;;;;;24.00;18.10;;;;;;;13.69;81.91;100712.97;130364;1257;115307;-70
2023/09/28 00:58:56;;;;;;;27.30;18.50;;;;;;;13.66;82.55;100711.33;130250;1254;127695;-71
2023/09/28 01:01:59;;;;;;;27.90;18.60;;;;;;;13.63;82.73;100706.69;130474;1270;114636;-70
2023/09/28 01:05:04;;;;;;;27.00;19.50;;;;;;;13.60;83.04;100706.13;130309;1257;114814;-70
2023/09/28 01:08:07;;;;;;;28.50;19.60;;;;;;;13.58;83.27;100703.04;130289;1254;114810;-69
2023/09/28 01:11:09;;;;;;;32.30;20.10;;;;;;;13.56;83.34;100702.60;130325;1256;114793;-70
2023/09/28 01:14:12;;;;;;;34.40;20.70;;;;;;;13.54;83.44;100705.02;130369;1256;114750;-69
2023/09/28 01:17:18;;;;;;;27.40;19.50;;;;;;;13.51;83.47;100706.27;130341;1254;114718;-69
2023/09/28 01:20:31;;;;;;;30.00;20.20;;;;;;;13.47;83.35;100704.69;130305;1259;114807;-69
2023/09/28 01:23:35;;;;;;;23.40;18.30;;;;;;;13.43;83.46;100706.14;130322;1257;115179;-69
2023/09/28 01:26:37;;;;;;;25.90;20.40;;;;;;;13.38;83.41;100703.52;130270;1257;114749;-69
2023/09/28 01:29:39;;;;;;;30.10;20.70;;;;;;;13.36;84.04;100707.27;130302;1257;114804;-70
2023/09/28 01:32:42;;;;;;;27.70;19.70;;;;;;;13.33;84.20;100707.56;130323;1254;115303;-70
2023/09/28 01:35:45;;;;;;;27.90;19.80;;;;;;;13.30;84.49;100713.14;130063;1260;114773;-71
2023/09/28 01:38:58;;;;;;;27.00;19.50;;;;;;;13.28;84.91;100710.38;130201;1253;114695;-70
2023/09/28 01:42:01;;;;;;;27.30;19.90;;;;;;;13.26;84.95;100705.79;130074;1259;114898;-68
2023/09/28 01:45:04;;;;;;;26.90;19.10;;;;;;;13.24;85.09;100703.22;130244;1254;114808;-69
2023/09/28 01:48:07;;;;;;;27.90;22.20;;;;;;;13.22;85.21;100704.56;130530;1256;114728;-70
2023/09/28 01:51:09;;;;;;;26.10;20.20;;;;;;;13.21;85.34;100700.33;130337;1256;114722;-69
2023/09/28 01:54:11;;;;;;;25.30;19.10;;;;;;;13.19;85.32;100699.16;130461;1256;115096;-70
2023/09/28 01:57:14;;;;;;;26.90;19.60;;;;;;;13.16;85.19;100700.77;130313;1254;114756;-69
2023/09/28 02:00:21;;;;;;;27.10;18.60;;;;;;;13.12;85.39;100693.65;130311;1256;114789;-69
2023/09/28 02:03:23;;;;;;;26.50;18.80;;;;;;;13.08;85.51;100689.73;130315;1254;115308;-69
2023/09/28 02:06:26;;;;;;;25.70;19.20;;;;;;;13.04;85.41;100689.05;130357;1268;114727;-69
2023/09/28 02:09:29;;;;;;;31.70;20.10;;;;;;;13.00;85.50;100694.46;130361;1256;114724;-70
2023/09/28 02:12:32;;;;;;;30.80;19.40;;;;;;;12.96;85.71;100695.56;130370;1256;115174;-69
2023/09/28 02:15:34;;;;;;;29.20;20.10;;;;;;;12.92;85.74;100695.91;130229;1253;115238;-70
2023/09/28 02:18:37;;;;;;;30.00;22.00;;;;;;;12.88;85.85;100693.64;130259;1258;114821;-69
2023/09/28 02:21:40;;;;;;;26.60;20.70;;;;;;;12.85;86.25;100689.31;130320;1253;114731;-69
2023/09/28 02:24:42;;;;;;;28.40;20.60;;;;;;;12.83;86.16;100686.77;130172;1254;114798;-72
2023/09/28 02:27:49;;;;;;;27.90;19.90;;;;;;;12.78;86.00;100690.23;130320;1258;114712;-73
2023/09/28 02:30:51;;;;;;;26.10;19.40;;;;;;;12.73;86.08;100691.54;130372;1254;115173;-72
2023/09/28 02:33:53;;;;;;;29.20;21.20;;;;;;;12.69;86.11;100689.08;130432;1257;114724;-70
2023/09/28 02:36:55;;;;;;;27.70;19.50;;;;;;;12.65;86.40;100688.21;130463;1257;114743;-69
2023/09/28 02:39:57;;;;;;;31.40;20.30;;;;;;;12.61;86.42;100691.97;130164;1253;114902;-69
2023/09/28 02:43:00;;;;;;;31.10;20.80;;;;;;;12.58;86.73;100691.08;130327;1257;115385;-70
2023/09/28 02:46:03;;;;;;;31.60;20.30;;;;;;;12.56;87.24;100685.98;130573;1256;115516;-70
2023/09/28 02:49:05;;;;;;;28.10;21.50;;;;;;;12.56;87.72;100687.23;130303;1256;128942;-71
2023/09/28 02:52:07;;;;;;;33.90;22.90;;;;;;;12.54;87.86;100690.92;130330;1257;115406;-69
2023/09/28 02:55:12;;;;;;;36.70;23.50;;;;;;;12.53;87.96;100692.59;130527;1253;114757;-69
2023/09/28 02:58:14;;;;;;;33.50;22.90;;;;;;;12.52;88.15;100691.75;130448;1275;115375;-69
2023/09/28 03:01:17;;;;;;;31.90;22.30;;;;;;;12.49;87.82;100696.73;130375;1257;115446;-69
2023/09/28 03:04:19;;;;;;;29.10;22.30;;;;;;;12.45;87.84;100702.83;130612;1254;115498;-69
2023/09/28 03:07:21;;;;;;;28.80;21.20;;;;;;;12.42;87.75;100705.86;130262;1256;129223;-69
2023/09/28 03:10:26;;;;;;;37.10;24.10;;;;;;;12.37;87.68;100700.59;130384;1256;115211;-69
2023/09/28 03:13:28;;;;;;;36.90;23.40;;;;;;;12.33;88.44;100702.02;130293;1259;115336;-69
2023/09/28 03:16:32;;;;;;;34.60;24.40;;;;;;;12.33;88.83;100700.45;130353;1257;114715;-71
2023/09/28 03:19:34;;;;;;;29.10;22.00;;;;;;;12.31;88.67;100703.55;130445;1259;114635;-71
2023/09/28 03:22:37;;;;;;;29.90;21.90;;;;;;;12.29;88.41;100704.73;130306;1257;114816;-72
2023/09/28 03:25:39;;;;;;;34.40;23.30;;;;;;;12.25;88.86;100696.88;130339;1269;114761;-72
2023/09/28 03:28:41;;;;;;;33.40;24.10;;;;;;;12.23;89.17;100703.40;130273;1276;129080;-71
2023/09/28 03:31:43;;;;;;;36.20;24.90;;;;;;;12.23;89.47;100696.98;130410;1275;114840;-72
2023/09/28 03:34:46;;;;;;;38.10;24.60;;;;;;;12.24;89.83;100696.41;130536;1275;114779;-69
2023/09/28 03:37:53;;;;;;;36.70;24.80;;;;;;;12.23;89.68;100694.48;130159;1260;114843;-70
2023/09/28 03:40:56;;;;;;;35.20;25.40;;;;;;;12.22;90.07;100692.36;130608;1275;115092;-71
2023/09/28 03:43:58;;;;;;;35.30;26.70;;;;;;;12.22;90.42;100692.21;130595;1275;114814;-71
2023/09/28 03:46:59;;;;;;;31.90;24.80;;;;;;;12.22;90.35;100688.98;130335;1254;114747;-71
2023/09/28 03:50:02;;;;;;;37.10;26.30;;;;;;;12.21;90.41;100686.33;130377;1253;128618;-72
2023/09/28 03:53:05;;;;;;;40.50;28.50;;;;;;;12.21;90.86;100683.09;130350;1259;115211;-70
2023/09/28 03:56:07;;;;;;;36.10;28.50;;;;;;;12.23;91.28;100682.48;130510;1256;114840;-71
2023/09/28 03:59:10;;;;;;;44.50;28.60;;;;;;;12.24;91.56;100686.55;130397;1257;114752;-71
2023/09/28 04:02:13;;;;;;;45.00;30.00;;;;;;;12.22;91.14;100685.02;130364;1254;114843;-71
2023/09/28 04:05:15;;;;;;;39.30;28.20;;;;;;;12.19;91.04;100688.94;130627;1252;114699;-70
2023/09/28 04:08:17;;;;;;;33.80;27.50;;;;;;;12.15;90.69;100688.59;130330;1275;114725;-70
2023/09/28 04:11:19;;;;;;;36.00;25.80;;;;;;;12.11;90.52;100689.69;130447;1275;114814;-70
2023/09/28 04:14:22;;;;;;;34.50;26.50;;;;;;;12.07;90.66;100688.48;130121;1275;115186;-70
2023/09/28 04:17:24;;;;;;;41.10;27.40;;;;;;;12.04;91.35;100689.15;130564;1256;115207;-71
2023/09/28 04:20:26;;;;;;;39.70;27.50;;;;;;;12.03;91.28;100691.01;130380;1272;114705;-71
2023/09/28 04:23:28;;;;;;;35.40;26.50;;;;;;;12.01;91.79;100688.92;130419;1267;114779;-71
2023/09/28 04:26:32;;;;;;;38.50;27.20;;;;;;;12.00;91.73;100691.48;130405;1257;114719;-71
2023/09/28 04:29:35;;;;;;;40.80;27.90;;;;;;;11.98;91.77;100691.73;130370;1261;115182;-70
2023/09/28 04:32:37;;;;;;;39.00;27.40;;;;;;;11.97;92.06;100687.84;130378;1254;114769;-71
2023/09/28 04:35:39;;;;;;;38.30;25.20;;;;;;;11.95;91.98;100687.05;130474;1256;115045;-70
2023/09/28 04:38:41;;;;;;;37.80;27.40;;;;;;;11.91;91.79;100690.81;130318;1275;114711;-71
2023/09/28 04:41:44;;;;;;;35.70;24.40;;;;;;;11.87;91.49;100685.45;130478;1270;115388;-71
2023/09/28 04:44:46;;;;;;;38.90;28.20;;;;;;;11.83;91.50;100688.52;130196;1254;115509;-71
2023/09/28 04:47:49;;;;;;;42.60;30.30;;;;;;;11.82;92.18;100687.86;130269;1259;114816;-71
2023/09/28 04:50:51;;;;;;;41.70;29.90;;;;;;;11.83;92.96;100685.43;130420;1259;128611;-71
2023/09/28 04:53:53;;;;;;;39.90;31.30;;;;;;;11.87;93.11;100681.52;130223;1257;114881;-71
2023/09/28 04:56:55;;;;;;;50.20;33.10;;;;;;;11.92;93.27;100688.80;130371;1258;115324;-71
2023/09/28 04:59:57;;;;;;;39.60;30.40;;;;;;;11.97;93.76;100690.18;130433;1275;114754;-71
2023/09/28 05:03:03;;;;;;;39.80;30.20;;;;;;;11.99;93.38;100693.67;130304;1259;115083;-70
2023/09/28 05:06:06;;;;;;;40.10;28.60;;;;;;;11.98;93.24;100688.15;130234;1267;114744;-70
2023/09/28 05:09:08;;;;;;;37.10;28.10;;;;;;;11.98;92.86;100682.98;130314;1258;114886;-70
2023/09/28 05:12:10;;;;;;;38.30;27.50;;;;;;;11.97;93.10;100685.66;130299;1253;115545;-69
2023/09/28 05:15:15;;;;;;;41.00;28.10;;;;;;;11.99;93.33;100689.55;130307;1276;115183;-70
2023/09/28 05:18:17;;;;;;;40.80;30.70;;;;;;;12.03;93.46;100691.69;130384;1276;115119;-70
2023/09/28 05:21:19;;;;;;;36.70;26.90;;;;;;;12.05;93.25;100693.23;130290;1257;114750;-70
2023/09/28 05:24:21;;;;;;;42.80;27.70;;;;;;;12.06;93.31;100692.96;130441;1254;115244;-70
2023/09/28 05:27:23;;;;;;;36.00;27.40;;;;;;;12.09;93.97;100690.66;130272;1272;114705;-70
2023/09/28 05:30:25;;;;;;;38.70;30.00;;;;;;;12.14;93.81;100699.21;130348;1254;114836;-70
2023/09/28 05:33:27;;;;;;;43.70;30.10;;;;;;;12.20;94.53;100698.38;128204;1257;3054444;-70
2023/09/28 05:36:29;;;;;;;46.10;30.40;;;;;;;12.26;94.65;100699.31;130146;1275;115868;-70
2023/09/28 05:39:31;;;;;;;37.60;29.20;;;;;;;12.34;94.96;100700.00;130290;1272;114732;-70
2023/09/28 05:42:34;;;;;;;43.30;28.20;;;;;;;12.42;95.34;100695.48;130439;1275;114728;-71
2023/09/28 05:45:38;;;;;;;41.80;30.00;;;;;;;12.50;95.05;100694.73;130412;1276;114849;-70
2023/09/28 05:48:41;;;;;;;42.50;30.20;;;;;;;12.58;95.37;100700.41;130370;1259;115704;-70
2023/09/28 05:51:44;;;;;;;45.30;31.20;;;;;;;12.67;95.50;100701.54;130377;1254;114849;-71
2023/09/28 05:54:46;;;;;;;43.80;31.00;;;;;;;12.76;95.49;100703.23;130403;1259;115172;-73
2023/09/28 05:57:49;;;;;;;42.30;29.90;;;;;;;12.89;95.99;100702.73;130302;1268;114807;-71
2023/09/28 06:00:51;;;;;;;45.30;29.90;;;;;;;13.04;95.95;100703.36;130418;1259;114738;-71
2023/09/28 06:03:53;;;;;;;45.90;30.70;;;;;;;13.27;95.99;100705.20;130351;1254;114819;-70
2023/09/28 06:06:56;;;;;;;38.10;29.80;;;;;;;13.50;95.92;100705.27;130348;1257;114744;-71
2023/09/28 06:09:58;;;;;;;36.00;27.90;;;;;;;13.72;95.72;100704.90;130412;1254;114715;-70
2023/09/28 06:13:00;;;;;;;39.30;28.40;;;;;;;13.94;95.80;100701.70;130458;1275;114836;-70
2023/09/28 06:16:02;;;;;;;37.40;28.20;;;;;;;14.16;95.46;100697.77;130294;1275;115176;-70
2023/09/28 06:19:04;;;;;;;45.60;30.00;;;;;;;14.37;95.32;100698.33;130332;1254;114759;-71
2023/09/28 06:22:09;;;;;;;35.80;26.90;;;;;;;14.61;95.33;100698.22;130599;1256;117015;-70
2023/09/28 06:25:11;;;;;;;36.00;26.90;;;;;;;14.83;95.13;100701.36;130394;1256;114867;-70
2023/09/28 06:28:13;;;;;;;39.90;25.30;;;;;;;15.03;94.56;100702.14;130481;1275;115162;-71
2023/09/28 06:31:18;;;;;;;34.10;25.90;;;;;;;15.20;94.52;100699.13;130361;1253;115361;-71
2023/09/28 06:34:20;;;;;;;42.10;26.30;;;;;;;15.39;94.27;100699.38;130075;1259;126912;-71
2023/09/28 06:37:25;;;;;;;37.20;26.00;;;;;;;15.59;94.05;100696.15;130275;1254;114700;-70
2023/09/28 06:40:31;;;;;;;35.90;24.20;;;;;;;15.78;93.81;100690.02;130054;1257;114715;-72
2023/09/28 06:43:33;;;;;;;30.10;22.90;;;;;;;15.98;93.21;100690.39;130289;1253;114828;-71
2023/09/28 06:46:35;;;;;;;28.70;21.30;;;;;;;16.19;92.76;100685.98;130262;1269;114736;-71
2023/09/28 06:49:37;;;;;;;30.60;20.50;;;;;;;16.42;92.68;100689.83;130592;1253;114746;-70
2023/09/28 06:52:42;;;;;;;28.50;20.60;;;;;;;16.63;91.99;100693.41;130237;1257;127749;-72
2023/09/28 06:55:45;;;;;;;22.00;17.30;;;;;;;16.86;91.58;100696.35;130221;1258;114776;-71
2023/09/28 06:58:47;;;;;;;24.70;17.50;;;;;;;17.09;90.98;100698.73;130316;1259;115244;-71
2023/09/28 07:01:49;;;;;;;20.90;17.50;;;;;;;17.32;90.25;100702.55;130357;1276;115024;-72
2023/09/28 07:04:52;;;;;;;27.40;16.50;;;;;;;17.53;89.37;100701.05;130079;1260;114756;-72
2023/09/28 07:07:54;;;;;;;27.80;17.50;;;;;;;17.76;88.94;100703.23;130238;1259;114717;-71
2023/09/28 07:10:57;;;;;;;22.20;16.00;;;;;;;17.96;88.69;100706.23;130264;1260;114915;-71
2023/09/28 07:13:59;;;;;;;27.70;16.80;;;;;;;18.17;88.07;100705.29;130383;1259;114657;-71
2023/09/28 07:17:01;;;;;;;21.90;16.20;;;;;;;18.40;87.83;100706.41;130298;1259;114852;-70
2023/09/28 07:20:05;;;;;;;26.30;14.60;;;;;;;18.66;87.25;100709.19;130200;1259;114664;-71
2023/09/28 07:23:07;;;;;;;19.30;15.10;;;;;;;18.93;86.78;100708.88;130550;1259;114870;-71
2023/09/28 07:26:16;;;;;;;19.40;13.80;;;;;;;19.23;86.27;100711.25;130282;1259;115107;-72
2023/09/28 07:29:18;;;;;;;20.00;13.90;;;;;;;19.54;85.25;100710.61;130276;1276;128948;-70
2023/09/28 07:32:20;;;;;;;18.50;12.90;;;;;;;19.85;84.70;100709.94;130211;1260;114777;-70
2023/09/28 07:35:23;;;;;;;18.80;13.80;;;;;;;20.14;84.11;100706.30;130307;1276;114756;-70
2023/09/28 07:38:25;;;;;;;15.80;12.80;;;;;;;20.42;83.53;100705.06;130068;1262;114743;-72
2023/09/28 07:41:28;;;;;;;19.80;12.70;;;;;;;20.71;82.75;100703.72;130363;1259;114799;-71
2023/09/28 07:44:30;;;;;;;17.80;13.00;;;;;;;21.01;82.35;100703.71;130286;1256;114730;-72
2023/09/28 07:47:33;;;;;;;19.20;12.50;;;;;;;21.33;81.44;100710.70;130437;1254;114734;-71
2023/09/28 07:50:35;;;;;;;20.20;12.20;;;;;;;21.66;80.35;100713.07;130156;1257;126764;-70
2023/09/28 07:53:37;;;;;;;17.10;11.60;;;;;;;21.98;79.82;100715.96;130421;1256;114703;-71
2023/09/28 07:56:40;;;;;;;17.40;11.50;;;;;;;22.31;78.74;100714.52;130431;1257;114802;-70
2023/09/28 07:59:43;;;;;;;17.80;11.30;;;;;;;22.62;78.65;100715.12;130340;1257;114670;-70
2023/09/28 08:02:45;;;;;;;17.20;10.30;;;;;;;22.92;77.74;100712.67;130153;1260;114898;-70
2023/09/28 08:05:47;;;;;;;13.90;10.20;;;;;;;23.18;76.82;100711.81;130339;1259;115247;-70
2023/09/28 08:08:49;;;;;;;15.00;9.90;;;;;;;23.43;76.18;100713.20;130285;1254;115677;-70
2023/09/28 08:11:52;;;;;;;15.20;9.50;;;;;;;23.60;75.17;100708.46;130249;1259;129238;-71
2023/09/28 08:14:54;;;;;;;16.00;8.90;;;;;;;23.75;73.85;100711.58;130355;1253;114753;-71
2023/09/28 08:17:57;;;;;;;13.20;9.40;;;;;;;23.80;73.24;100716.75;130350;1254;114731;-70
2023/09/28 08:20:59;;;;;;;11.60;8.80;;;;;;;23.80;72.69;100711.80;130397;1257;114791;-71
2023/09/28 08:24:01;;;;;;;15.40;9.50;;;;;;;23.72;71.37;100709.09;130270;1275;114731;-70
2023/09/28 08:27:04;;;;;;;15.90;9.20;;;;;;;23.65;71.61;100707.30;130296;1257;114776;-71
2023/09/28 08:30:07;;;;;;;13.50;9.40;;;;;;;23.61;70.77;100708.44;130194;1260;114804;-70
2023/09/28 08:33:10;;;;;;;12.20;8.20;;;;;;;23.55;70.52;100705.36;130348;1276;114824;-71
2023/09/28 08:36:13;;;;;;;13.90;8.10;;;;;;;23.48;69.44;100706.30;130388;1267;115189;-70
2023/09/28 08:39:15;;;;;;;18.10;8.90;;;;;;;23.42;68.23;100708.98;130300;1259;114821;-70
2023/09/28 08:42:23;;;;;;;12.10;8.20;;;;;;;23.38;68.70;100712.99;130386;1275;114710;-70
2023/09/28 08:45:29;;;;;;;13.80;7.50;;;;;;;23.37;68.36;100708.52;130264;1256;114740;-71
2023/09/28 08:48:33;;;;;;;16.80;8.10;;;;;;;23.36;67.31;100709.32;130353;1256;128062;-70
2023/09/28 08:51:39;;;;;;;14.00;7.30;;;;;;;23.39;67.73;100707.21;130310;1275;115608;-70
2023/09/28 08:54:42;;;;;;;9.50;7.20;;;;;;;23.47;66.80;100709.20;130127;1259;114856;-72
2023/09/28 08:57:44;;;;;;;9.60;7.40;;;;;;;23.51;65.51;100704.44;130462;1261;115189;-70
2023/09/28 09:00:46;;;;;;;11.50;7.20;;;;;;;23.58;66.54;100706.33;130279;1254;115324;-70
2023/09/28 09:03:49;;;;;;;14.60;6.90;;;;;;;23.69;65.59;100706.77;130377;1254;115588;-71
2023/09/28 09:06:52;;;;;;;11.10;5.90;;;;;;;23.73;64.18;100705.73;130343;1254;128901;-70
2023/09/28 09:09:56;;;;;;;9.80;7.00;;;;;;;23.79;63.96;100705.11;130252;1257;114789;-70
2023/09/28 09:12:58;;;;;;;13.40;7.10;;;;;;;23.88;64.28;100701.57;130322;1259;114791;-70
2023/09/28 09:16:00;;;;;;;9.70;6.20;;;;;;;23.96;63.10;100700.04;130396;1266;114687;-71
2023/09/28 09:19:02;;;;;;;16.50;6.10;;;;;;;24.02;62.37;100698.03;130324;1257;115318;-71
2023/09/28 09:22:04;;;;;;;11.90;6.10;;;;;;;24.08;62.34;100698.34;130242;1257;114780;-70
2023/09/28 09:25:07;;;;;;;12.10;5.80;;;;;;;24.15;61.73;100696.23;130309;1258;115106;-70
2023/09/28 09:28:10;;;;;;;9.10;6.60;;;;;;;24.21;61.62;100692.80;130469;1256;114798;-70
2023/09/28 09:31:14;;;;;;;7.70;5.30;;;;;;;24.27;61.51;100689.48;130397;1254;115218;-73
2023/09/28 09:34:19;;;;;;;14.10;6.10;;;;;;;24.36;61.88;100688.76;130490;1264;114738;-71
2023/09/28 09:37:21;;;;;;;8.50;6.50;;;;;;;24.45;61.22;100687.64;130506;1259;114820;-70
2023/09/28 09:40:23;;;;;;;9.30;5.10;;;;;;;24.50;59.92;100690.65;130468;1272;115415;-72
2023/09/28 09:43:40;;;;;;;9.70;6.10;;;;;;;24.51;58.93;100689.80;130651;1254;114731;-71
2023/09/28 09:46:42;;;;;;;14.40;5.40;;;;;;;24.50;57.89;100686.73;130475;1272;115292;-71
2023/09/28 09:49:45;;;;;;;14.00;6.30;;;;;;;24.53;58.10;100684.45;130652;1260;114766;-72
2023/09/28 09:52:47;;;;;;;8.80;5.10;;;;;;;24.57;58.29;100682.92;130350;1257;114826;-71
2023/09/28 09:55:50;;;;;;;7.70;5.40;;;;;;;24.63;57.43;100681.28;130569;1268;114861;-70
2023/09/28 09:58:55;;;;;;;12.50;5.10;;;;;;;24.67;57.48;100680.59;130410;1254;114832;-72
2023/09/28 10:01:58;;;;;;;11.80;5.70;;;;;;;24.70;55.86;100679.20;130383;1273;128537;-72
2023/09/28 10:05:01;;;;;;;8.80;5.90;;;;;;;24.72;55.70;100681.94;130447;1259;114807;-71
2023/09/28 10:08:06;;;;;;;11.60;5.30;;;;;;;24.76;55.51;100679.93;130380;1257;114747;-70
2023/09/28 10:11:08;;;;;;;;;;;;;;;24.76;55.19;100676.48;130455;1259;114718;-71
2023/09/28 10:14:11;;;;;;;7.20;4.90;;;;;;;24.78;54.95;100670.40;130423;1268;114759;-72
2023/09/28 10:17:13;;;;;;;8.20;5.00;;;;;;;24.80;54.72;100674.83;130356;1259;114796;-70
2023/09/28 10:20:16;;;;;;;11.30;5.20;;;;;;;24.82;54.69;100675.67;130429;1259;115473;-71
2023/09/28 10:23:25;;;;;;;11.70;4.90;;;;;;;24.86;54.65;100674.34;130367;1266;115218;-71
2023/09/28 10:26:29;;;;;;;12.20;5.50;;;;;;;24.90;54.70;100672.50;130293;1269;114909;-72
2023/09/28 10:29:32;;;;;;;11.90;5.70;;;;;;;24.93;54.51;100669.29;130628;1260;114798;-71
2023/09/28 10:32:35;;;;;;;9.70;5.60;;;;;;;24.95;54.62;100672.30;130438;1257;114808;-71
2023/09/28 10:35:38;;;;;;;9.60;5.30;;;;;;;24.97;53.65;100667.89;130253;1257;114731;-70
2023/09/28 10:38:41;;;;;;;12.10;5.70;;;;;;;24.96;53.70;100666.75;130386;1266;115385;-71
2023/09/28 10:41:50;;;;;;;7.00;4.00;;;;;;;24.96;53.28;100665.68;130415;1257;114763;-71
2023/09/28 10:44:54;;;;;;;11.70;5.60;;;;;;;24.94;53.79;100660.70;130306;1258;114745;-71
2023/09/28 10:47:56;;;;;;;9.30;4.80;;;;;;;24.96;54.11;100658.63;129994;1262;114856;-72
2023/09/28 10:51:01;;;;;;;14.40;6.00;;;;;;;24.96;53.05;100656.52;130336;1276;114837;-72
2023/09/28 10:54:08;;;;;;;7.50;5.10;;;;;;;24.93;52.88;100648.63;130092;1276;115173;-74
2023/09/28 10:57:10;;;;;;;5.90;4.80;;;;;;;24.91;52.45;100650.67;130342;1260;114715;-72
2023/09/28 11:00:12;;;;;;;5.60;4.30;;;;;;;24.87;52.15;100651.86;130316;1267;114766;-74
2023/09/28 11:03:17;;;;;;;9.60;5.10;;;;;;;24.86;52.35;100653.47;130325;1267;115321;-71
2023/09/28 11:06:19;;;;;;;;;;;;;;;24.85;52.34;100648.26;130335;1275;114767;-72
2023/09/28 11:09:21;;;;;;;8.60;5.20;;;;;;;24.87;52.87;100648.12;130347;1253;114747;-71
2023/09/28 11:12:28;;;;;;;9.30;5.00;;;;;;;24.88;52.92;100641.59;130473;1276;115109;-71
2023/09/28 11:15:31;;;;;;;12.40;5.20;;;;;;;24.88;52.85;100641.02;130141;1262;114725;-71
2023/09/28 11:18:33;;;;;;;8.10;4.40;;;;;;;24.87;51.56;100639.84;130371;1258;114797;-71
2023/09/28 11:21:35;;;;;;;7.50;5.20;;;;;;;24.86;51.26;100640.86;130566;1275;114811;-71
2023/09/28 11:24:37;;;;;;;9.20;4.60;;;;;;;24.85;51.75;100639.30;130398;1258;114899;-72
2023/09/28 11:27:39;;;;;;;9.40;4.90;;;;;;;24.85;52.04;100637.89;130440;1266;115125;-72
2023/09/28 11:30:41;;;;;;;11.50;5.40;;;;;;;24.84;51.99;100640.16;130631;1254;114794;-72
2023/09/28 11:33:46;;;;;;;10.90;5.20;;;;;;;24.83;52.05;100642.98;130072;1260;115277;-70
2023/09/28 11:36:48;;;;;;;15.30;4.70;;;;;;;24.83;51.92;100641.35;130208;1254;114907;-69
2023/09/28 11:39:51;;;;;;;7.20;5.40;;;;;;;24.82;51.48;100641.17;130438;1276;114733;-72
2023/09/28 11:42:53;;;;;;;8.40;4.80;;;;;;;24.81;51.57;100636.45;130503;1258;114706;-70
2023/09/28 11:45:56;;;;;;;9.20;5.60;;;;;;;24.82;52.17;100637.01;130297;1254;115125;-72
2023/09/28 11:49:05;;;;;;;10.00;3.60;;;;;;;24.83;52.22;100631.77;130263;1254;114733;-70
2023/09/28 11:52:07;;;;;;;15.00;5.60;;;;;;;24.84;51.97;100634.73;130410;1256;114981;-71
2023/09/28 11:55:14;;;;;;;11.10;5.70;;;;;;;24.83;51.59;100628.97;130423;1257;114852;-71
2023/09/28 11:58:22;;;;;;;6.30;5.10;;;;;;;24.83;51.57;100627.09;130484;1255;114770;-71
2023/09/28 12:01:25;;;;;;;10.20;5.20;;;;;;;24.83;51.29;100619.69;130314;1256;114717;-71
2023/09/28 12:04:27;;;;;;;10.90;5.60;;;;;;;24.81;51.51;100613.42;130337;1273;114823;-72
2023/09/28 12:07:29;;;;;;;5.40;4.20;;;;;;;24.83;51.84;100616.34;130397;1275;114814;-69
2023/09/28 12:10:32;;;;;;;7.10;4.00;;;;;;;24.85;51.97;100612.48;130503;1254;114851;-70
2023/09/28 12:13:34;;;;;;;6.70;4.30;;;;;;;24.85;51.38;100609.00;130457;1255;114820;-71
2023/09/28 12:16:36;;;;;;;4.30;2.60;;;;;;;24.86;51.24;100609.99;130585;1272;115233;-72
2023/09/28 12:19:38;;;;;;;6.80;4.30;;;;;;;24.86;50.52;100608.86;130682;1275;114711;-72
2023/09/28 12:22:43;;;;;;;5.40;3.20;;;;;;;24.87;50.31;100608.09;130371;1264;115324;-71
2023/09/28 12:25:45;;;;;;;5.70;3.40;;;;;;;24.91;50.83;100609.91;130442;1255;120341;-71
2023/09/28 12:28:47;;;;;;;9.30;5.00;;;;;;;24.92;50.37;100607.55;130450;1275;115001;-71
2023/09/28 12:31:49;;;;;;;6.70;4.70;;;;;;;24.94;49.34;100609.23;130500;1272;114911;-70
2023/09/28 12:34:51;;;;;;;6.60;4.10;;;;;;;24.97;49.37;100610.56;130449;1257;114804;-71
2023/09/28 12:37:54;;;;;;;7.70;4.70;;;;;;;24.98;49.37;100610.81;130360;1258;115188;-72
2023/09/28 12:40:55;;;;;;;9.30;4.70;;;;;;;24.98;49.26;100603.99;130432;1260;114818;-72
2023/09/28 12:43:57;;;;;;;7.60;4.20;;;;;;;24.99;48.52;100603.20;130394;1258;114988;-72
2023/09/28 12:47:00;;;;;;;7.30;4.20;;;;;;;25.00;48.46;100602.28;130419;1255;114813;-71
2023/09/28 12:50:03;;;;;;;7.00;3.10;;;;;;;25.01;47.92;100600.23;130379;1273;115214;-70
2023/09/28 12:53:05;;;;;;;7.80;3.70;;;;;;;25.01;47.71;100596.38;130522;1275;114716;-70
2023/09/28 12:56:09;;;;;;;8.00;3.80;;;;;;;25.03;47.81;100595.45;130364;1274;114756;-69
2023/09/28 12:59:15;;;;;;;5.00;3.30;;;;;;;25.04;47.97;100597.52;130289;1267;114750;-70
2023/09/28 13:02:17;;;;;;;4.60;4.00;;;;;;;25.05;47.84;100593.48;130234;1257;114741;-72
2023/09/28 13:05:19;;;;;;;6.10;3.50;;;;;;;25.05;47.07;100587.55;130275;1257;114740;-71
2023/09/28 13:08:21;;;;;;;7.20;4.10;;;;;;;25.04;46.23;100579.97;130389;1270;114811;-70
2023/09/28 13:11:23;;;;;;;8.40;4.20;;;;;;;25.05;46.57;100572.81;130074;1269;115337;-72
2023/09/28 13:14:26;;;;;;;11.80;4.50;;;;;;;25.05;46.88;100568.98;130268;1276;115192;-73
2023/09/28 13:17:30;;;;;;;8.80;4.90;;;;;;;25.05;46.32;100566.59;130433;1270;114805;-70
2023/09/28 13:20:33;;;;;;;7.70;4.10;;;;;;;25.03;45.89;100567.45;130327;1257;114808;-73
2023/09/28 13:23:35;;;;;;;8.20;4.30;;;;;;;25.02;45.91;100565.91;130313;1276;114817;-73
2023/09/28 13:26:38;;;;;;;7.90;4.20;;;;;;;25.02;45.89;100561.31;130118;1268;114827;-72
2023/09/28 13:29:41;;;;;;;20.10;4.80;;;;;;;25.04;45.69;100559.38;130382;1276;115320;-72
2023/09/28 13:32:43;;;;;;;8.10;4.30;;;;;;;25.02;45.46;100558.20;130397;1276;114718;-70
2023/09/28 13:35:45;;;;;;;8.80;4.20;;;;;;;25.02;45.21;100557.52;130381;1257;115415;-72
2023/09/28 13:38:50;;;;;;;6.10;4.10;;;;;;;25.03;45.05;100556.70;130529;1258;114731;-72